sensor_id;sensor_type;location;lat;lon;timestamp;temperature;humidity
22383;DHT22;11359;45.802;13.530;2023-02-04T00:01:04;16.20;40.40
22383;DHT22;11359;45.802;13.530;2023-02-04T00:03:29;16.10;40.30
22383;DHT22;11359;45.802;13.530;2023-02-04T00:05:55;16.10;40.40
22383;DHT22;11359;45.802;13.530;2023-02-04T00:08:21;16.00;40.40
22383;DHT22;11359;45.802;13.530;2023-02-04T00:10:47;15.90;40.40
22383;DHT22;11359;45.802;13.530;2023-02-04T00:13:12;15.90;40.40
22383;DHT22;11359;45.802;13.530;2023-02-04T00:15:38;15.80;40.50
22383;DHT22;11359;45.802;13.530;2023-02-04T00:18:04;15.80;40.60
22383;DHT22;11359;45.802;13.530;2023-02-04T00:20:32;15.80;40.70
22383;DHT22;11359;45.802;13.530;2023-02-04T00:22:57;15.70;40.70
22383;DHT22;11359;45.802;13.530;2023-02-04T00:25:24;15.70;40.80
22383;DHT22;11359;45.802;13.530;2023-02-04T00:27:50;15.60;40.80
22383;DHT22;11359;45.802;13.530;2023-02-04T00:30:16;15.60;40.90
22383;DHT22;11359;45.802;13.530;2023-02-04T00:32:42;15.50;41.00
22383;DHT22;11359;45.802;13.530;2023-02-04T00:35:08;15.50;41.10
22383;DHT22;11359;45.802;13.530;2023-02-04T00:37:33;15.40;41.00
22383;DHT22;11359;45.802;13.530;2023-02-04T00:40:00;15.40;41.10
22383;DHT22;11359;45.802;13.530;2023-02-04T00:42:25;15.40;41.20
22383;DHT22;11359;45.802;13.530;2023-02-04T00:44:51;15.30;41.20
22383;DHT22;11359;45.802;13.530;2023-02-04T00:47:18;15.30;41.30
22383;DHT22;11359;45.802;13.530;2023-02-04T00:49:44;15.20;41.30
22383;DHT22;11359;45.802;13.530;2023-02-04T00:52:10;15.20;41.40
22383;DHT22;11359;45.802;13.530;2023-02-04T00:54:36;15.10;41.40
22383;DHT22;11359;45.802;13.530;2023-02-04T00:57:01;15.10;41.50
22383;DHT22;11359;45.802;13.530;2023-02-04T00:59:27;15.00;41.50
22383;DHT22;11359;45.802;13.530;2023-02-04T01:01:53;15.00;41.50
22383;DHT22;11359;45.802;13.530;2023-02-04T01:04:19;14.90;41.60
22383;DHT22;11359;45.802;13.530;2023-02-04T01:06:45;14.90;41.50
22383;DHT22;11359;45.802;13.530;2023-02-04T01:09:11;14.90;41.50
22383;DHT22;11359;45.802;13.530;2023-02-04T01:11:37;14.80;41.50
22383;DHT22;11359;45.802;13.530;2023-02-04T01:14:03;14.80;41.60
22383;DHT22;11359;45.802;13.530;2023-02-04T01:16:29;14.70;41.70
22383;DHT22;11359;45.802;13.530;2023-02-04T01:18:55;14.70;41.80
22383;DHT22;11359;45.802;13.530;2023-02-04T01:21:24;14.60;41.80
22383;DHT22;11359;45.802;13.530;2023-02-04T01:23:50;14.50;41.80
22383;DHT22;11359;45.802;13.530;2023-02-04T01:26:18;14.50;42.00
22383;DHT22;11359;45.802;13.530;2023-02-04T01:28:44;14.50;42.00
22383;DHT22;11359;45.802;13.530;2023-02-04T01:31:11;14.40;42.10
22383;DHT22;11359;45.802;13.530;2023-02-04T01:33:37;14.40;42.10
22383;DHT22;11359;45.802;13.530;2023-02-04T01:36:03;14.40;42.20
22383;DHT22;11359;45.802;13.530;2023-02-04T01:38:28;14.30;42.20
22383;DHT22;11359;45.802;13.530;2023-02-04T01:40:55;14.30;42.30
22383;DHT22;11359;45.802;13.530;2023-02-04T01:43:21;14.30;42.30
22383;DHT22;11359;45.802;13.530;2023-02-04T01:45:48;14.20;42.30
22383;DHT22;11359;45.802;13.530;2023-02-04T01:48:15;14.20;42.40
22383;DHT22;11359;45.802;13.530;2023-02-04T01:50:52;14.10;42.50
22383;DHT22;11359;45.802;13.530;2023-02-04T01:53:23;14.10;42.50
22383;DHT22;11359;45.802;13.530;2023-02-04T01:55:51;14.10;42.60
22383;DHT22;11359;45.802;13.530;2023-02-04T01:58:18;14.00;42.60
22383;DHT22;11359;45.802;13.530;2023-02-04T02:00:44;14.00;42.70
22383;DHT22;11359;45.802;13.530;2023-02-04T02:03:11;14.00;42.80
22383;DHT22;11359;45.802;13.530;2023-02-04T02:05:41;13.90;42.80
22383;DHT22;11359;45.802;13.530;2023-02-04T02:08:08;13.90;42.90
22383;DHT22;11359;45.802;13.530;2023-02-04T02:10:36;13.90;43.10
22383;DHT22;11359;45.802;13.530;2023-02-04T02:13:04;13.80;43.00
22383;DHT22;11359;45.802;13.530;2023-02-04T02:15:30;13.80;43.00
22383;DHT22;11359;45.802;13.530;2023-02-04T02:17:56;13.70;43.00
22383;DHT22;11359;45.802;13.530;2023-02-04T02:20:24;13.70;43.20
22383;DHT22;11359;45.802;13.530;2023-02-04T02:25:43;13.60;43.30
22383;DHT22;11359;45.802;13.530;2023-02-04T02:28:14;13.60;43.40
22383;DHT22;11359;45.802;13.530;2023-02-04T02:30:41;13.60;43.50
22383;DHT22;11359;45.802;13.530;2023-02-04T02:33:13;13.50;43.50
22383;DHT22;11359;45.802;13.530;2023-02-04T02:35:41;13.50;43.50
22383;DHT22;11359;45.802;13.530;2023-02-04T02:38:10;13.50;43.50
22383;DHT22;11359;45.802;13.530;2023-02-04T02:40:36;13.50;43.50
22383;DHT22;11359;45.802;13.530;2023-02-04T02:43:03;13.40;43.60
22383;DHT22;11359;45.802;13.530;2023-02-04T02:45:31;13.40;43.60
22383;DHT22;11359;45.802;13.530;2023-02-04T02:47:59;13.30;43.50
22383;DHT22;11359;45.802;13.530;2023-02-04T02:50:29;13.30;43.60
22383;DHT22;11359;45.802;13.530;2023-02-04T02:52:57;13.20;43.60
22383;DHT22;11359;45.802;13.530;2023-02-04T02:55:24;13.20;43.60
22383;DHT22;11359;45.802;13.530;2023-02-04T02:57:51;13.20;43.70
22383;DHT22;11359;45.802;13.530;2023-02-04T03:00:21;13.10;43.70
22383;DHT22;11359;45.802;13.530;2023-02-04T03:03:16;13.10;43.80
22383;DHT22;11359;45.802;13.530;2023-02-04T03:05:44;13.00;43.90
22383;DHT22;11359;45.802;13.530;2023-02-04T03:08:13;13.00;44.00
22383;DHT22;11359;45.802;13.530;2023-02-04T03:10:41;13.00;44.10
22383;DHT22;11359;45.802;13.530;2023-02-04T03:13:07;13.00;44.10
22383;DHT22;11359;45.802;13.530;2023-02-04T03:15:33;12.90;44.10
22383;DHT22;11359;45.802;13.530;2023-02-04T03:17:59;12.90;44.10
22383;DHT22;11359;45.802;13.530;2023-02-04T03:20:30;12.90;44.20
22383;DHT22;11359;45.802;13.530;2023-02-04T03:22:57;12.90;44.20
22383;DHT22;11359;45.802;13.530;2023-02-04T03:25:24;12.80;44.20
22383;DHT22;11359;45.802;13.530;2023-02-04T03:27:54;12.80;44.30
22383;DHT22;11359;45.802;13.530;2023-02-04T03:30:21;12.80;44.30
22383;DHT22;11359;45.802;13.530;2023-02-04T03:32:48;12.70;44.40
22383;DHT22;11359;45.802;13.530;2023-02-04T03:35:14;12.70;44.50
22383;DHT22;11359;45.802;13.530;2023-02-04T03:37:39;12.70;44.50
22383;DHT22;11359;45.802;13.530;2023-02-04T03:40:05;12.70;44.60
22383;DHT22;11359;45.802;13.530;2023-02-04T03:42:31;12.60;44.60
22383;DHT22;11359;45.802;13.530;2023-02-04T03:44:58;12.60;44.70
22383;DHT22;11359;45.802;13.530;2023-02-04T03:47:26;12.60;44.70
22383;DHT22;11359;45.802;13.530;2023-02-04T03:49:52;12.60;44.70
22383;DHT22;11359;45.802;13.530;2023-02-04T03:52:18;12.60;44.80
22383;DHT22;11359;45.802;13.530;2023-02-04T03:54:45;12.60;44.70
22383;DHT22;11359;45.802;13.530;2023-02-04T03:57:11;12.50;44.80
22383;DHT22;11359;45.802;13.530;2023-02-04T03:59:36;12.50;45.50
22383;DHT22;11359;45.802;13.530;2023-02-04T04:02:02;12.50;44.90
22383;DHT22;11359;45.802;13.530;2023-02-04T04:04:28;12.40;44.90
22383;DHT22;11359;45.802;13.530;2023-02-04T04:06:54;12.40;44.90
22383;DHT22;11359;45.802;13.530;2023-02-04T04:09:20;12.40;44.90
22383;DHT22;11359;45.802;13.530;2023-02-04T04:11:45;12.40;45.00
22383;DHT22;11359;45.802;13.530;2023-02-04T04:14:11;12.30;45.10
22383;DHT22;11359;45.802;13.530;2023-02-04T04:16:37;12.30;45.20
22383;DHT22;11359;45.802;13.530;2023-02-04T04:19:03;12.30;45.20
22383;DHT22;11359;45.802;13.530;2023-02-04T04:21:29;12.20;45.20
22383;DHT22;11359;45.802;13.530;2023-02-04T04:23:55;12.30;45.30
22383;DHT22;11359;45.802;13.530;2023-02-04T04:26:21;12.20;45.30
22383;DHT22;11359;45.802;13.530;2023-02-04T04:28:46;12.20;45.40
22383;DHT22;11359;45.802;13.530;2023-02-04T04:31:13;12.20;45.40
22383;DHT22;11359;45.802;13.530;2023-02-04T04:33:38;12.20;45.50
22383;DHT22;11359;45.802;13.530;2023-02-04T04:36:05;12.10;45.40
22383;DHT22;11359;45.802;13.530;2023-02-04T04:38:31;12.10;45.50
22383;DHT22;11359;45.802;13.530;2023-02-04T04:40:57;12.10;45.50
22383;DHT22;11359;45.802;13.530;2023-02-04T04:43:23;12.10;45.60
22383;DHT22;11359;45.802;13.530;2023-02-04T04:45:49;12.10;45.60
22383;DHT22;11359;45.802;13.530;2023-02-04T04:48:14;12.10;45.60
22383;DHT22;11359;45.802;13.530;2023-02-04T04:50:40;12.00;45.60
22383;DHT22;11359;45.802;13.530;2023-02-04T04:53:06;12.00;45.60
22383;DHT22;11359;45.802;13.530;2023-02-04T04:55:38;12.00;45.60
22383;DHT22;11359;45.802;13.530;2023-02-04T04:58:07;12.00;45.60
22383;DHT22;11359;45.802;13.530;2023-02-04T05:00:32;11.90;45.60
22383;DHT22;11359;45.802;13.530;2023-02-04T05:02:58;11.90;45.70
22383;DHT22;11359;45.802;13.530;2023-02-04T05:05:24;11.90;45.70
22383;DHT22;11359;45.802;13.530;2023-02-04T05:07:50;11.90;45.80
22383;DHT22;11359;45.802;13.530;2023-02-04T05:10:18;11.80;45.80
22383;DHT22;11359;45.802;13.530;2023-02-04T05:12:44;11.80;45.80
22383;DHT22;11359;45.802;13.530;2023-02-04T05:15:09;11.80;45.90
22383;DHT22;11359;45.802;13.530;2023-02-04T05:17:35;11.80;45.90
22383;DHT22;11359;45.802;13.530;2023-02-04T05:20:01;11.70;45.90
22383;DHT22;11359;45.802;13.530;2023-02-04T05:22:26;11.70;45.90
22383;DHT22;11359;45.802;13.530;2023-02-04T05:24:52;11.70;46.00
22383;DHT22;11359;45.802;13.530;2023-02-04T05:27:18;11.70;46.10
22383;DHT22;11359;45.802;13.530;2023-02-04T05:29:43;11.70;46.10
22383;DHT22;11359;45.802;13.530;2023-02-04T05:32:12;11.70;46.20
22383;DHT22;11359;45.802;13.530;2023-02-04T05:34:38;11.70;46.20
22383;DHT22;11359;45.802;13.530;2023-02-04T05:37:03;11.70;46.20
22383;DHT22;11359;45.802;13.530;2023-02-04T05:39:29;11.70;46.20
22383;DHT22;11359;45.802;13.530;2023-02-04T05:41:55;11.80;46.30
22383;DHT22;11359;45.802;13.530;2023-02-04T05:44:20;11.80;46.30
22383;DHT22;11359;45.802;13.530;2023-02-04T05:46:46;11.80;46.30
22383;DHT22;11359;45.802;13.530;2023-02-04T05:49:12;11.80;46.30
22383;DHT22;11359;45.802;13.530;2023-02-04T05:51:38;11.80;46.20
22383;DHT22;11359;45.802;13.530;2023-02-04T05:54:04;11.90;46.30
22383;DHT22;11359;45.802;13.530;2023-02-04T05:56:30;11.90;46.20
22383;DHT22;11359;45.802;13.530;2023-02-04T05:58:56;11.90;46.10
22383;DHT22;11359;45.802;13.530;2023-02-04T06:01:22;11.90;46.10
22383;DHT22;11359;45.802;13.530;2023-02-04T06:03:48;11.90;46.20
22383;DHT22;11359;45.802;13.530;2023-02-04T06:06:17;12.00;46.30
22383;DHT22;11359;45.802;13.530;2023-02-04T06:08:43;12.00;46.30
22383;DHT22;11359;45.802;13.530;2023-02-04T06:11:08;12.00;46.20
22383;DHT22;11359;45.802;13.530;2023-02-04T06:13:34;12.10;46.30
22383;DHT22;11359;45.802;13.530;2023-02-04T06:16:00;12.20;46.30
22383;DHT22;11359;45.802;13.530;2023-02-04T06:18:25;12.20;46.20
22383;DHT22;11359;45.802;13.530;2023-02-04T06:20:51;12.30;46.20
22383;DHT22;11359;45.802;13.530;2023-02-04T06:23:17;12.30;46.10
22383;DHT22;11359;45.802;13.530;2023-02-04T06:25:43;12.40;46.10
22383;DHT22;11359;45.802;13.530;2023-02-04T06:28:08;12.50;46.70
22383;DHT22;11359;45.802;13.530;2023-02-04T06:30:34;12.50;46.00
22383;DHT22;11359;45.802;13.530;2023-02-04T06:33:01;12.60;45.90
22383;DHT22;11359;45.802;13.530;2023-02-04T06:35:27;12.70;45.90
22383;DHT22;11359;45.802;13.530;2023-02-04T06:37:53;12.70;45.80
22383;DHT22;11359;45.802;13.530;2023-02-04T06:40:18;12.80;45.80
22383;DHT22;11359;45.802;13.530;2023-02-04T06:42:44;12.90;45.80
22383;DHT22;11359;45.802;13.530;2023-02-04T06:45:10;12.90;45.70
22383;DHT22;11359;45.802;13.530;2023-02-04T06:47:35;13.00;45.70
22383;DHT22;11359;45.802;13.530;2023-02-04T06:50:01;13.10;45.70
22383;DHT22;11359;45.802;13.530;2023-02-04T06:52:27;13.10;45.60
22383;DHT22;11359;45.802;13.530;2023-02-04T06:54:52;13.20;45.60
22383;DHT22;11359;45.802;13.530;2023-02-04T06:57:18;13.30;45.60
22383;DHT22;11359;45.802;13.530;2023-02-04T06:59:44;13.40;45.60
22383;DHT22;11359;45.802;13.530;2023-02-04T07:02:11;13.40;45.50
22383;DHT22;11359;45.802;13.530;2023-02-04T07:04:37;13.50;45.40
22383;DHT22;11359;45.802;13.530;2023-02-04T07:07:03;13.60;45.30
22383;DHT22;11359;45.802;13.530;2023-02-04T07:09:29;13.60;45.20
22383;DHT22;11359;45.802;13.530;2023-02-04T07:11:55;13.70;45.20
22383;DHT22;11359;45.802;13.530;2023-02-04T07:14:21;13.70;45.10
22383;DHT22;11359;45.802;13.530;2023-02-04T07:16:47;13.80;45.00
22383;DHT22;11359;45.802;13.530;2023-02-04T07:19:13;13.90;45.00
22383;DHT22;11359;45.802;13.530;2023-02-04T07:21:38;13.90;44.80
22383;DHT22;11359;45.802;13.530;2023-02-04T07:24:05;14.00;44.80
22383;DHT22;11359;45.802;13.530;2023-02-04T07:26:31;14.00;44.70
22383;DHT22;11359;45.802;13.530;2023-02-04T07:28:58;14.10;44.60
22383;DHT22;11359;45.802;13.530;2023-02-04T07:31:25;14.20;44.70
22383;DHT22;11359;45.802;13.530;2023-02-04T07:33:51;14.20;44.60
22383;DHT22;11359;45.802;13.530;2023-02-04T07:36:16;14.30;44.60
22383;DHT22;11359;45.802;13.530;2023-02-04T07:38:42;14.30;44.50
22383;DHT22;11359;45.802;13.530;2023-02-04T07:41:08;14.40;44.50
22383;DHT22;11359;45.802;13.530;2023-02-04T07:43:33;14.40;44.50
22383;DHT22;11359;45.802;13.530;2023-02-04T07:45:59;14.50;44.50
22383;DHT22;11359;45.802;13.530;2023-02-04T07:48:24;14.60;44.50
22383;DHT22;11359;45.802;13.530;2023-02-04T07:50:50;14.70;44.50
22383;DHT22;11359;45.802;13.530;2023-02-04T07:53:16;14.70;44.50
22383;DHT22;11359;45.802;13.530;2023-02-04T07:55:41;14.80;44.50
22383;DHT22;11359;45.802;13.530;2023-02-04T07:58:08;14.80;44.50
22383;DHT22;11359;45.802;13.530;2023-02-04T08:00:33;14.90;44.50
22383;DHT22;11359;45.802;13.530;2023-02-04T08:02:59;15.00;44.50
22383;DHT22;11359;45.802;13.530;2023-02-04T08:05:24;15.10;44.40
22383;DHT22;11359;45.802;13.530;2023-02-04T08:07:50;15.20;44.40
22383;DHT22;11359;45.802;13.530;2023-02-04T08:10:16;15.20;44.30
22383;DHT22;11359;45.802;13.530;2023-02-04T08:12:42;15.30;44.30
22383;DHT22;11359;45.802;13.530;2023-02-04T08:15:08;15.30;44.20
22383;DHT22;11359;45.802;13.530;2023-02-04T08:17:34;15.40;44.20
22383;DHT22;11359;45.802;13.530;2023-02-04T08:20:00;15.50;44.30
22383;DHT22;11359;45.802;13.530;2023-02-04T08:22:26;15.50;44.20
22383;DHT22;11359;45.802;13.530;2023-02-04T08:24:51;15.60;44.20
22383;DHT22;11359;45.802;13.530;2023-02-04T08:27:17;15.70;44.20
22383;DHT22;11359;45.802;13.530;2023-02-04T08:29:43;15.70;44.20
22383;DHT22;11359;45.802;13.530;2023-02-04T08:32:08;15.80;44.00
22383;DHT22;11359;45.802;13.530;2023-02-04T08:34:35;15.80;43.90
22383;DHT22;11359;45.802;13.530;2023-02-04T08:37:01;15.80;43.90
22383;DHT22;11359;45.802;13.530;2023-02-04T08:39:28;15.90;43.90
22383;DHT22;11359;45.802;13.530;2023-02-04T08:41:54;15.90;43.90
22383;DHT22;11359;45.802;13.530;2023-02-04T08:44:19;16.00;43.90
22383;DHT22;11359;45.802;13.530;2023-02-04T08:46:45;16.00;43.90
22383;DHT22;11359;45.802;13.530;2023-02-04T08:49:10;16.10;43.90
22383;DHT22;11359;45.802;13.530;2023-02-04T08:51:36;16.10;43.90
22383;DHT22;11359;45.802;13.530;2023-02-04T08:54:01;16.10;43.80
22383;DHT22;11359;45.802;13.530;2023-02-04T08:56:27;16.20;43.90
22383;DHT22;11359;45.802;13.530;2023-02-04T08:58:53;16.20;43.80
22383;DHT22;11359;45.802;13.530;2023-02-04T09:01:19;16.30;43.90
22383;DHT22;11359;45.802;13.530;2023-02-04T09:03:45;16.30;43.90
22383;DHT22;11359;45.802;13.530;2023-02-04T09:06:12;16.30;43.90
22383;DHT22;11359;45.802;13.530;2023-02-04T09:08:38;16.40;43.90
22383;DHT22;11359;45.802;13.530;2023-02-04T09:11:04;16.40;44.00
22383;DHT22;11359;45.802;13.530;2023-02-04T09:13:30;16.40;43.90
22383;DHT22;11359;45.802;13.530;2023-02-04T09:15:57;16.50;44.00
22383;DHT22;11359;45.802;13.530;2023-02-04T09:18:22;16.50;44.00
22383;DHT22;11359;45.802;13.530;2023-02-04T09:20:50;16.50;43.90
22383;DHT22;11359;45.802;13.530;2023-02-04T09:23:17;16.60;44.00
22383;DHT22;11359;45.802;13.530;2023-02-04T09:25:44;16.60;44.00
22383;DHT22;11359;45.802;13.530;2023-02-04T09:28:11;16.60;44.00
22383;DHT22;11359;45.802;13.530;2023-02-04T09:30:38;16.60;43.90
22383;DHT22;11359;45.802;13.530;2023-02-04T09:33:04;16.60;43.90
22383;DHT22;11359;45.802;13.530;2023-02-04T09:35:30;16.70;44.00
22383;DHT22;11359;45.802;13.530;2023-02-04T09:37:56;16.70;44.00
22383;DHT22;11359;45.802;13.530;2023-02-04T09:40:22;16.70;44.00
22383;DHT22;11359;45.802;13.530;2023-02-04T09:42:49;16.70;44.00
22383;DHT22;11359;45.802;13.530;2023-02-04T09:45:24;16.70;44.00
22383;DHT22;11359;45.802;13.530;2023-02-04T09:47:51;16.70;44.00
22383;DHT22;11359;45.802;13.530;2023-02-04T09:50:19;16.70;44.00
22383;DHT22;11359;45.802;13.530;2023-02-04T09:52:48;16.80;44.10
22383;DHT22;11359;45.802;13.530;2023-02-04T09:55:17;16.80;44.00
22383;DHT22;11359;45.802;13.530;2023-02-04T09:57:44;16.70;43.90
22383;DHT22;11359;45.802;13.530;2023-02-04T10:00:22;16.70;43.90
22383;DHT22;11359;45.802;13.530;2023-02-04T10:02:48;16.60;43.90
22383;DHT22;11359;45.802;13.530;2023-02-04T10:05:20;16.60;43.90
22383;DHT22;11359;45.802;13.530;2023-02-04T10:07:49;16.50;44.00
22383;DHT22;11359;45.802;13.530;2023-02-04T10:10:16;16.50;44.10
22383;DHT22;11359;45.802;13.530;2023-02-04T10:12:44;16.40;44.20
22383;DHT22;11359;45.802;13.530;2023-02-04T10:15:15;16.40;44.50
22383;DHT22;11359;45.802;13.530;2023-02-04T10:17:44;16.30;44.70
22383;DHT22;11359;45.802;13.530;2023-02-04T10:20:18;16.20;44.60
22383;DHT22;11359;45.802;13.530;2023-02-04T10:22:48;16.20;44.70
22383;DHT22;11359;45.802;13.530;2023-02-04T10:25:17;16.20;44.80
22383;DHT22;11359;45.802;13.530;2023-02-04T10:27:52;16.20;45.00
22383;DHT22;11359;45.802;13.530;2023-02-04T10:30:21;16.20;45.20
22383;DHT22;11359;45.802;13.530;2023-02-04T10:32:48;16.20;45.30
22383;DHT22;11359;45.802;13.530;2023-02-04T10:35:17;16.20;45.40
22383;DHT22;11359;45.802;13.530;2023-02-04T10:37:43;16.20;45.60
22383;DHT22;11359;45.802;13.530;2023-02-04T10:40:35;16.10;45.50
22383;DHT22;11359;45.802;13.530;2023-02-04T10:45:34;16.10;45.70
22383;DHT22;11359;45.802;13.530;2023-02-04T10:48:00;16.00;45.80
22383;DHT22;11359;45.802;13.530;2023-02-04T10:50:27;16.00;45.90
22383;DHT22;11359;45.802;13.530;2023-02-04T10:52:58;16.00;46.00
22383;DHT22;11359;45.802;13.530;2023-02-04T10:55:44;16.00;46.10
22383;DHT22;11359;45.802;13.530;2023-02-04T10:58:14;16.00;46.20
22383;DHT22;11359;45.802;13.530;2023-02-04T11:00:40;15.90;46.40
22383;DHT22;11359;45.802;13.530;2023-02-04T11:03:21;15.90;46.50
22383;DHT22;11359;45.802;13.530;2023-02-04T11:05:47;15.90;46.70
22383;DHT22;11359;45.802;13.530;2023-02-04T11:08:33;15.90;46.70
22383;DHT22;11359;45.802;13.530;2023-02-04T11:18:54;15.80;47.00
22383;DHT22;11359;45.802;13.530;2023-02-04T11:26:51;15.90;47.30
22383;DHT22;11359;45.802;13.530;2023-02-04T11:37:13;16.00;47.30
22383;DHT22;11359;45.802;13.530;2023-02-04T11:39:47;16.00;47.20
22383;DHT22;11359;45.802;13.530;2023-02-04T11:42:31;16.00;47.20
22383;DHT22;11359;45.802;13.530;2023-02-04T11:45:01;16.10;47.20
22383;DHT22;11359;45.802;13.530;2023-02-04T11:47:35;16.10;47.20
22383;DHT22;11359;45.802;13.530;2023-02-04T11:50:04;16.10;47.10
22383;DHT22;11359;45.802;13.530;2023-02-04T11:52:35;16.20;47.20
22383;DHT22;11359;45.802;13.530;2023-02-04T11:55:01;16.20;47.10
22383;DHT22;11359;45.802;13.530;2023-02-04T11:57:27;16.20;47.10
22383;DHT22;11359;45.802;13.530;2023-02-04T11:59:53;16.30;47.20
22383;DHT22;11359;45.802;13.530;2023-02-04T12:02:22;16.30;47.20
22383;DHT22;11359;45.802;13.530;2023-02-04T12:04:57;16.40;47.20
22383;DHT22;11359;45.802;13.530;2023-02-04T12:07:33;16.40;47.20
22383;DHT22;11359;45.802;13.530;2023-02-04T12:10:12;16.50;47.10
22383;DHT22;11359;45.802;13.530;2023-02-04T12:12:49;16.60;47.10
22383;DHT22;11359;45.802;13.530;2023-02-04T12:15:23;16.60;47.00
22383;DHT22;11359;45.802;13.530;2023-02-04T12:18:06;16.70;46.90
22383;DHT22;11359;45.802;13.530;2023-02-04T12:20:34;16.80;46.90
22383;DHT22;11359;45.802;13.530;2023-02-04T12:23:00;16.80;46.80
22383;DHT22;11359;45.802;13.530;2023-02-04T12:25:25;16.90;46.70
22383;DHT22;11359;45.802;13.530;2023-02-04T12:27:52;16.90;46.60
22383;DHT22;11359;45.802;13.530;2023-02-04T12:30:20;17.00;46.50
22383;DHT22;11359;45.802;13.530;2023-02-04T12:32:46;17.10;46.50
22383;DHT22;11359;45.802;13.530;2023-02-04T12:35:12;17.20;46.40
22383;DHT22;11359;45.802;13.530;2023-02-04T12:37:37;17.20;46.20
22383;DHT22;11359;45.802;13.530;2023-02-04T12:40:03;17.20;46.00
22383;DHT22;11359;45.802;13.530;2023-02-04T12:42:29;17.30;45.80
22383;DHT22;11359;45.802;13.530;2023-02-04T12:44:55;17.40;45.80
22383;DHT22;11359;45.802;13.530;2023-02-04T12:47:20;17.40;45.80
22383;DHT22;11359;45.802;13.530;2023-02-04T12:49:46;17.40;46.30
22383;DHT22;11359;45.802;13.530;2023-02-04T12:52:12;17.50;45.60
22383;DHT22;11359;45.802;13.530;2023-02-04T12:54:38;17.60;45.50
22383;DHT22;11359;45.802;13.530;2023-02-04T12:57:04;17.60;45.40
22383;DHT22;11359;45.802;13.530;2023-02-04T12:59:30;17.70;45.40
22383;DHT22;11359;45.802;13.530;2023-02-04T13:01:58;17.70;45.30
22383;DHT22;11359;45.802;13.530;2023-02-04T13:04:24;17.70;45.20
22383;DHT22;11359;45.802;13.530;2023-02-04T13:06:49;17.80;45.20
22383;DHT22;11359;45.802;13.530;2023-02-04T13:09:15;17.90;45.30
22383;DHT22;11359;45.802;13.530;2023-02-04T13:11:40;17.90;45.30
22383;DHT22;11359;45.802;13.530;2023-02-04T13:14:06;18.00;45.30
22383;DHT22;11359;45.802;13.530;2023-02-04T13:16:32;18.10;45.30
22383;DHT22;11359;45.802;13.530;2023-02-04T13:18:57;18.20;45.30
22383;DHT22;11359;45.802;13.530;2023-02-04T13:21:23;18.20;45.20
22383;DHT22;11359;45.802;13.530;2023-02-04T13:23:50;18.30;45.20
22383;DHT22;11359;45.802;13.530;2023-02-04T13:26:18;18.40;45.10
22383;DHT22;11359;45.802;13.530;2023-02-04T13:28:44;18.40;44.90
22383;DHT22;11359;45.802;13.530;2023-02-04T13:31:10;18.40;44.80
22383;DHT22;11359;45.802;13.530;2023-02-04T13:33:35;18.50;44.80
22383;DHT22;11359;45.802;13.530;2023-02-04T13:36:01;18.50;44.70
22383;DHT22;11359;45.802;13.530;2023-02-04T13:38:28;18.50;44.70
22383;DHT22;11359;45.802;13.530;2023-02-04T13:40:54;18.60;44.80
22383;DHT22;11359;45.802;13.530;2023-02-04T13:43:20;18.60;44.80
22383;DHT22;11359;45.802;13.530;2023-02-04T13:45:46;18.70;44.80
22383;DHT22;11359;45.802;13.530;2023-02-04T13:48:14;18.70;44.70
22383;DHT22;11359;45.802;13.530;2023-02-04T13:50:41;18.70;44.50
22383;DHT22;11359;45.802;13.530;2023-02-04T13:53:06;18.70;44.30
22383;DHT22;11359;45.802;13.530;2023-02-04T13:55:33;18.80;44.20
22383;DHT22;11359;45.802;13.530;2023-02-04T13:57:58;18.80;44.20
22383;DHT22;11359;45.802;13.530;2023-02-04T14:00:24;18.80;44.10
22383;DHT22;11359;45.802;13.530;2023-02-04T14:02:50;18.90;44.20
22383;DHT22;11359;45.802;13.530;2023-02-04T14:05:15;18.90;44.20
22383;DHT22;11359;45.802;13.530;2023-02-04T14:07:41;18.90;44.20
22383;DHT22;11359;45.802;13.530;2023-02-04T14:10:07;19.00;44.20
22383;DHT22;11359;45.802;13.530;2023-02-04T14:12:33;19.00;44.20
22383;DHT22;11359;45.802;13.530;2023-02-04T14:14:58;19.00;44.10
22383;DHT22;11359;45.802;13.530;2023-02-04T14:17:24;19.10;44.00
22383;DHT22;11359;45.802;13.530;2023-02-04T14:19:50;19.10;43.80
22383;DHT22;11359;45.802;13.530;2023-02-04T14:22:15;19.10;43.70
22383;DHT22;11359;45.802;13.530;2023-02-04T14:24:41;19.10;43.50
22383;DHT22;11359;45.802;13.530;2023-02-04T14:27:08;19.10;43.50
22383;DHT22;11359;45.802;13.530;2023-02-04T14:29:34;19.20;43.40
22383;DHT22;11359;45.802;13.530;2023-02-04T14:32:00;19.20;43.90
22383;DHT22;11359;45.802;13.530;2023-02-04T14:34:26;19.20;43.00
22383;DHT22;11359;45.802;13.530;2023-02-04T14:36:52;19.20;42.80
22383;DHT22;11359;45.802;13.530;2023-02-04T14:39:18;19.30;42.80
22383;DHT22;11359;45.802;13.530;2023-02-04T14:41:43;19.30;42.80
22383;DHT22;11359;45.802;13.530;2023-02-04T14:44:09;19.30;42.70
22383;DHT22;11359;45.802;13.530;2023-02-04T14:46:35;19.30;42.70
22383;DHT22;11359;45.802;13.530;2023-02-04T14:49:01;19.30;42.70
22383;DHT22;11359;45.802;13.530;2023-02-04T14:51:27;19.30;42.70
22383;DHT22;11359;45.802;13.530;2023-02-04T14:53:53;19.30;42.60
22383;DHT22;11359;45.802;13.530;2023-02-04T14:56:19;19.40;42.60
22383;DHT22;11359;45.802;13.530;2023-02-04T14:58:46;19.40;42.50
22383;DHT22;11359;45.802;13.530;2023-02-04T15:01:11;19.40;42.50
22383;DHT22;11359;45.802;13.530;2023-02-04T15:03:37;19.50;42.40
22383;DHT22;11359;45.802;13.530;2023-02-04T15:06:03;19.50;42.40
22383;DHT22;11359;45.802;13.530;2023-02-04T15:08:29;19.60;42.50
22383;DHT22;11359;45.802;13.530;2023-02-04T15:10:54;19.60;42.20
22383;DHT22;11359;45.802;13.530;2023-02-04T15:13:20;19.60;42.00
22383;DHT22;11359;45.802;13.530;2023-02-04T15:15:46;19.60;41.90
22383;DHT22;11359;45.802;13.530;2023-02-04T15:18:12;19.60;41.90
22383;DHT22;11359;45.802;13.530;2023-02-04T15:20:37;19.70;41.80
22383;DHT22;11359;45.802;13.530;2023-02-04T15:23:03;19.70;41.50
22383;DHT22;11359;45.802;13.530;2023-02-04T15:25:28;19.70;41.30
22383;DHT22;11359;45.802;13.530;2023-02-04T15:27:55;19.70;41.00
22383;DHT22;11359;45.802;13.530;2023-02-04T15:30:21;19.80;40.70
22383;DHT22;11359;45.802;13.530;2023-02-04T15:32:47;19.80;40.20
22383;DHT22;11359;45.802;13.530;2023-02-04T15:35:13;19.90;39.80
22383;DHT22;11359;45.802;13.530;2023-02-04T15:37:39;19.90;38.90
22383;DHT22;11359;45.802;13.530;2023-02-04T15:40:05;19.90;38.50